Time;durP1;ratioP1;P1;durP2;ratioP2;P2;SDS_P1;SDS_P2;PMS_P1;PMS_P2;Temp;Humidity;BMP_temperature;BMP_pressure;BME280_temperature;BME280_humidity;BME280_pressure;Samples;Min_cycle;Max_cycle;Signal;HPM_P1;HPM_P2
2022/10/03 00:00:59;;;;;;;2.03;1.30;;;;;;;;;;21164858;28;20224;-72
2022/10/03 00:11:12;;;;;;;1.87;0.67;;;12.00;99.90;;;;;;21164716;28;20196;-71
2022/10/03 00:21:34;;;;;;;1.33;0.63;;;12.00;99.90;;;;;;21162870;28;20207;-71
2022/10/03 00:32:06;;;;;;;1.10;0.70;;;12.00;99.90;;;;;;21161901;28;20617;-70
2022/10/03 00:42:07;;;;;;;0.80;0.60;;;;;;;;;;21141978;28;20247;-71
2022/10/03 00:52:12;;;;;;;0.93;0.70;;;;;;;;;;21142756;28;20207;-71
2022/10/03 01:02:32;;;;;;;1.73;0.83;;;;;;;;;;21160786;28;20212;-71
2022/10/03 01:12:53;;;;;;;0.87;0.70;;;;;;;;;;21158213;28;20269;-71
2022/10/03 01:23:18;;;;;;;3.37;1.30;;;11.80;99.90;;;;;;21139824;28;20204;-71
2022/10/03 01:33:36;;;;;;;1.00;0.70;;;;;;;;;;21156798;28;20486;-72
2022/10/03 01:43:44;;;;;;;1.70;0.90;;;11.70;99.90;;;;;;21136721;28;20249;-69
2022/10/03 01:53:58;;;;;;;1.20;0.63;;;;;;;;;;21153921;28;20679;-71
2022/10/03 02:04:03;;;;;;;2.33;0.63;;;;;;;;;;21138353;28;20611;-71
2022/10/03 02:14:05;;;;;;;1.20;0.70;;;;;;;;;;21119634;28;20220;-72
2022/10/03 02:24:16;;;;;;;0.90;0.70;;;;;;;;;;21144628;28;20283;-71
2022/10/03 02:34:46;;;;;;;1.50;0.80;;;11.30;99.90;;;;;;21151530;28;20219;-70
2022/10/03 02:45:20;;;;;;;1.30;0.70;;;11.40;99.90;;;;;;21152342;28;20237;-71
2022/10/03 02:55:42;;;;;;;1.20;0.70;;;11.20;99.90;;;;;;21140335;28;20634;-71
2022/10/03 03:05:45;;;;;;;1.20;0.83;;;;;;;;;;21150374;28;20566;-71
2022/10/03 03:16:07;;;;;;;1.30;0.83;;;11.10;99.90;;;;;;21150515;28;20587;-71
2022/10/03 03:26:37;;;;;;;1.23;0.80;;;;;;;;;;21149866;28;20219;-71
2022/10/03 03:37:03;;;;;;;0.60;0.50;;;;;;;;;;21148922;28;20224;-71
2022/10/03 03:47:21;;;;;;;0.73;0.70;;;11.00;99.90;;;;;;21120162;28;20268;-71
2022/10/03 03:57:23;;;;;;;4.70;1.13;;;;;;;;;;21148786;28;20216;-71
2022/10/03 04:07:24;;;;;;;0.83;0.70;;;;;;;;;;21148156;28;20203;-71
2022/10/03 04:28:21;;;;;;;3.00;0.90;;;10.80;99.90;;;;;;21163497;28;20690;-71
2022/10/03 04:38:48;;;;;;;1.57;0.90;;;10.70;99.90;;;;;;21161501;28;20207;-71
2022/10/03 04:49:11;;;;;;;1.43;0.80;;;10.60;99.90;;;;;;21161257;28;20196;-71
2022/10/03 04:59:22;;;;;;;2.17;1.10;;;;;;;;;;21163595;28;20212;-71
2022/10/03 05:09:24;;;;;;;0.70;0.60;;;;;;;;;;21159546;28;20210;-71
2022/10/03 05:19:35;;;;;;;1.90;0.87;;;10.30;99.90;;;;;;21140670;28;20212;-71
2022/10/03 05:29:44;;;;;;;1.40;0.87;;;10.20;99.90;;;;;;21146779;28;20231;-70
2022/10/03 05:40:17;;;;;;;3.70;0.80;;;10.30;99.90;;;;;;21146245;28;20227;-71
2022/10/03 05:50:42;;;;;;;1.37;0.83;;;;;;;;;;21154948;28;20192;-71
2022/10/03 06:01:02;;;;;;;1.90;1.20;;;;;;;;;;21136949;28;20212;-70
2022/10/03 06:11:13;;;;;;;0.73;0.60;;;10.30;99.90;;;;;;21152922;28;20273;-71
2022/10/03 06:21:33;;;;;;;1.53;0.83;;;10.20;99.90;;;;;;21154173;28;20241;-71
2022/10/03 06:32:02;;;;;;;1.60;1.10;;;10.30;99.90;;;;;;21152981;28;20255;-71
2022/10/03 06:42:36;;;;;;;1.63;1.07;;;10.50;99.90;;;;;;21151697;28;20207;-71
2022/10/03 06:52:44;;;;;;;1.93;1.13;;;;;;;;;;21139985;28;20272;-71
2022/10/03 07:03:41;;;;;;;4.23;1.57;;;10.80;99.90;;;;;;21106891;28;20597;-69
2022/10/03 07:13:43;;;;;;;3.83;1.77;;;;;;;;;;21099295;28;20595;-70
2022/10/03 07:23:56;;;;;;;4.23;1.70;;;;;;;;;;21124296;28;20220;-71
2022/10/03 07:34:16;;;;;;;2.27;1.13;;;;;;;;;;21138962;28;20580;-70
2022/10/03 07:44:18;;;;;;;2.20;1.47;;;;;;;;;;21135814;28;20208;-71
2022/10/03 07:54:20;;;;;;;4.90;3.27;;;;;;;;;;21127523;28;20370;-71
2022/10/03 08:04:22;;;;;;;3.57;2.40;;;;;;;;;;21052239;28;20312;-71
2022/10/03 08:14:42;;;;;;;2.83;1.67;;;;;;;;;;21112075;27;20549;-71
2022/10/03 08:25:11;;;;;;;3.33;1.97;;;12.60;99.90;;;;;;21160128;28;20230;-71
2022/10/03 08:35:34;;;;;;;2.87;2.00;;;;;;;;;;21124385;28;20247;-71
2022/10/03 08:45:35;;;;;;;3.77;2.17;;;;;;;;;;21124156;27;20215;-71
2022/10/03 08:55:44;;;;;;;3.77;1.97;;;;;;;;;;21137556;27;20966;-70
2022/10/03 09:05:57;;;;;;;4.87;2.47;;;;;;;;;;21137253;28;20561;-71
2022/10/03 09:16:11;;;;;;;3.90;2.07;;;;;;;;;;21141489;27;20219;-70
2022/10/03 09:26:16;;;;;;;5.33;2.40;;;;;;;;;;21126880;28;20279;-70
2022/10/03 09:36:30;;;;;;;3.33;2.10;;;14.20;99.90;;;;;;21103370;28;20292;-70
2022/10/03 09:46:39;;;;;;;4.63;2.07;;;;;;;;;;21102021;28;20270;-70
2022/10/03 09:57:01;;;;;;;7.80;2.03;;;;;;;;;;21115579;27;20203;-71
2022/10/03 10:07:33;;;;;;;4.60;2.00;;;14.60;99.90;;;;;;21088600;28;20231;-71
2022/10/03 10:18:12;;;;;;;9.33;2.37;;;14.80;99.90;;;;;;21084019;28;20216;-70
2022/10/03 10:28:33;;;;;;;2.53;1.07;;;;;;;;;;21125791;28;20277;-72
2022/10/03 10:39:00;;;;;;;3.23;1.20;;;14.70;99.90;;;;;;21125588;28;20220;-70
2022/10/03 10:49:10;;;;;;;4.10;1.37;;;14.50;99.90;;;;;;21124661;28;20220;-70
2022/10/03 10:59:21;;;;;;;1.70;0.90;;;14.20;99.90;;;;;;21120939;28;20216;-70
2022/10/03 11:09:41;;;;;;;1.80;1.13;;;;;;;;;;21108981;28;20269;-70
2022/10/03 11:19:59;;;;;;;1.23;0.87;;;;;;;;;;21131037;28;20224;-70
2022/10/03 11:30:16;;;;;;;2.17;1.00;;;;;;;;;;21139674;28;20245;-68
2022/10/03 11:40:18;;;;;;;3.63;1.10;;;;;;;;;;21121929;28;20279;-69
2022/10/03 11:50:31;;;;;;;4.37;1.10;;;;;;;;;;21151292;28;20183;-69
2022/10/03 12:00:36;;;;;;;2.37;0.83;;;15.60;99.90;;;;;;21077269;28;20293;-69
2022/10/03 12:10:38;;;;;;;2.43;0.90;;;;;;;;;;21099980;28;20245;-69
2022/10/03 12:21:08;;;;;;;1.30;0.53;;;16.40;99.90;;;;;;21133861;28;20223;-68
2022/10/03 12:31:16;;;;;;;1.80;0.93;;;;;;;;;;21148398;28;20640;-70
2022/10/03 12:41:30;;;;;;;2.90;1.03;;;;;;;;;;21135650;28;20296;-68
2022/10/03 12:51:53;;;;;;;1.60;0.70;;;15.70;99.90;;;;;;21136576;28;20265;-68
2022/10/03 13:02:26;;;;;;;1.27;0.67;;;15.70;99.90;;;;;;21127184;28;20216;-68
2022/10/03 13:12:41;;;;;;;1.40;0.77;;;16.10;99.90;;;;;;21154317;28;20207;-69
2022/10/03 13:22:58;;;;;;;1.70;0.70;;;;;;;;;;21157070;28;20566;-69
2022/10/03 13:33:25;;;;;;;1.10;0.53;;;15.70;99.90;;;;;;21141829;28;20227;-69
2022/10/03 13:43:35;;;;;;;0.97;0.60;;;16.70;99.90;;;;;;21147953;28;20219;-69
2022/10/03 13:53:41;;;;;;;2.40;0.63;;;;;;;;;;21130039;28;20208;-69
2022/10/03 14:03:44;;;;;;;1.90;0.60;;;;;;;;;;21137703;28;20220;-68
2022/10/03 14:14:15;;;;;;;1.10;0.50;;;16.90;99.90;;;;;;21125158;28;20219;-70
2022/10/03 14:24:27;;;;;;;1.73;0.80;;;16.40;99.90;;;;;;21103152;28;20276;-68
2022/10/03 14:34:49;;;;;;;1.63;0.60;;;;;;;;;;21126121;27;20714;-68
2022/10/03 14:44:56;;;;;;;1.73;0.60;;;;;;;;;;21140248;28;20211;-68
2022/10/03 14:55:07;;;;;;;2.00;0.80;;;;;;;;;;21134568;28;20487;-68
2022/10/03 15:05:14;;;;;;;2.10;0.60;;;;;;;;;;21092175;28;20224;-70
2022/10/03 15:15:22;;;;;;;1.67;0.80;;;;;;;;;;21108159;28;20220;-69
2022/10/03 15:25:27;;;;;;;2.73;0.93;;;;;;;;;;21083716;28;20279;-70
2022/10/03 15:35:30;;;;;;;1.27;0.50;;;15.20;99.90;;;;;;21138914;28;20619;-70
2022/10/03 15:45:34;;;;;;;2.00;0.63;;;15.20;99.90;;;;;;21128798;28;20208;-70
2022/10/03 15:55:48;;;;;;;1.60;0.70;;;;;;;;;;21118077;28;20277;-70
2022/10/03 16:06:12;;;;;;;1.70;0.77;;;15.10;99.90;;;;;;21112423;28;20223;-69
2022/10/03 16:16:17;;;;;;;4.10;1.10;;;;;;;;;;21133548;28;20219;-70
2022/10/03 16:26:42;;;;;;;1.23;0.70;;;;;;;;;;21144843;27;20212;-71
2022/10/03 16:36:47;;;;;;;1.90;0.90;;;;;;;;;;21059133;28;20772;-70
2022/10/03 16:46:50;;;;;;;6.57;3.43;;;;;;;;;;21137195;28;20211;-70
2022/10/03 16:56:58;;;;;;;5.37;2.90;;;14.60;99.90;;;;;;21128383;28;20261;-69
2022/10/03 17:07:04;;;;;;;5.73;3.87;;;14.50;99.90;;;;;;21112647;28;20308;-70
2022/10/03 17:17:29;;;;;;;6.80;4.03;;;14.40;99.90;;;;;;21127456;27;20642;-70
2022/10/03 17:27:42;;;;;;;5.37;2.27;;;;;;;;;;21072952;28;20220;-70
2022/10/03 17:37:56;;;;;;;4.53;2.10;;;;;;;;;;21123881;28;20204;-70
2022/10/03 17:47:59;;;;;;;3.70;2.50;;;;;;;;;;21099536;28;20204;-70
2022/10/03 17:58:05;;;;;;;3.80;2.17;;;;;;;;;;21102324;27;20239;-70
2022/10/03 18:08:11;;;;;;;3.33;2.17;;;;;;;;;;21105034;28;20860;-70
2022/10/03 18:18:19;;;;;;;3.53;1.63;;;;;;;;;;21105622;28;20219;-68
2022/10/03 18:28:26;;;;;;;2.23;1.37;;;13.80;99.90;;;;;;21126525;27;20755;-70
2022/10/03 18:38:29;;;;;;;2.90;1.20;;;;;;;;;;21118580;28;20259;-71
2022/10/03 18:48:37;;;;;;;3.67;2.60;;;;;;;;;;21137429;27;20272;-71
2022/10/03 18:58:42;;;;;;;2.90;2.00;;;;;;;;;;21093006;28;20301;-68
2022/10/03 19:08:50;;;;;;;3.07;1.30;;;;;;;;;;21106872;28;20247;-69
2022/10/03 19:18:54;;;;;;;1.67;1.20;;;;;;;;;;21143180;28;20215;-69
2022/10/03 19:29:12;;;;;;;2.83;1.10;;;13.40;99.90;;;;;;21140615;28;20200;-70
2022/10/03 19:39:16;;;;;;;1.60;1.10;;;13.20;99.90;;;;;;21134319;28;20216;-69
2022/10/03 19:49:44;;;;;;;3.00;1.80;;;13.20;99.90;;;;;;21126901;28;20276;-70
2022/10/03 19:59:51;;;;;;;3.37;1.90;;;;;;;;;;21152981;28;20242;-70
2022/10/03 20:09:57;;;;;;;4.50;2.00;;;;;;;;;;21146520;28;20588;-69
2022/10/03 20:20:04;;;;;;;3.23;1.70;;;;;;;;;;21155299;28;20257;-68
2022/10/03 20:30:22;;;;;;;1.90;1.70;;;;;;;;;;21156531;28;20288;-67
2022/10/03 20:40:26;;;;;;;3.20;1.80;;;;;;;;;;21159052;28;20243;-68
2022/10/03 20:50:32;;;;;;;2.93;1.63;;;12.70;99.90;;;;;;21158635;28;20188;-69
2022/10/03 21:00:40;;;;;;;2.23;1.30;;;;;;;;;;21148087;22;20255;-69
2022/10/03 21:10:47;;;;;;;1.73;0.90;;;;;;;;;;21035873;28;20228;-66
2022/10/03 21:21:02;;;;;;;4.40;2.10;;;12.40;99.90;;;;;;21039714;28;20289;-69
2022/10/03 21:31:17;;;;;;;2.60;1.40;;;;;;;;;;21022303;28;20616;-69
2022/10/03 21:41:33;;;;;;;2.13;1.33;;;12.40;99.90;;;;;;21020848;28;20224;-69
2022/10/03 21:51:48;;;;;;;1.80;1.30;;;;;;;;;;20986029;28;20224;-69
2022/10/03 22:01:58;;;;;;;3.43;1.50;;;;;;;;;;20955819;28;20613;-69
2022/10/03 22:12:06;;;;;;;3.73;1.60;;;12.00;99.90;;;;;;20955226;28;20318;-69
2022/10/03 22:22:08;;;;;;;1.60;1.20;;;;;;;;;;20924466;28;20314;-69
2022/10/03 22:32:17;;;;;;;2.60;1.10;;;;;;;;;;21077354;28;20679;-69
2022/10/03 22:42:20;;;;;;;1.33;1.00;;;;;;;;;;21020173;28;20760;-69
2022/10/03 22:52:24;;;;;;;1.87;1.10;;;;;;;;;;21019898;28;20208;-69
2022/10/03 23:02:30;;;;;;;1.57;1.10;;;;;;;;;;21019193;28;20748;-69
2022/10/03 23:12:39;;;;;;;2.13;1.47;;;;;;;;;;21002676;28;20216;-69
2022/10/03 23:22:42;;;;;;;2.67;1.40;;;;;;;;;;21052541;28;20200;-69
2022/10/03 23:32:47;;;;;;;2.10;1.33;;;;;;;;;;21044171;28;20233;-69
2022/10/03 23:43:00;;;;;;;2.67;1.83;;;;;;;;;;21118195;28;20680;-69
2022/10/03 23:53:03;;;;;;;4.07;2.60;;;11.30;99.90;;;;;;21130641;28;20219;-66
